createdAt,value
2023-02-11T17:22:57.004Z,12.55
2023-02-11T17:23:03.815Z,12.55
2023-02-11T17:28:05.388Z,12.97
2023-02-11T17:33:07.144Z,13.99
2023-02-11T17:38:08.394Z,15.12
2023-02-11T17:43:10.196Z,16.14
2023-02-11T17:48:11.867Z,16.99
2023-02-11T17:53:13.085Z,17.71
2023-02-11T17:58:14.315Z,18.29
2023-02-11T18:03:15.690Z,18.81
2023-02-11T18:08:17.455Z,19.25
2023-02-11T18:13:19.207Z,19.64
2023-02-11T18:18:20.715Z,19.96
2023-02-11T18:23:22.076Z,20.26
2023-02-11T18:28:23.416Z,20.52
2023-02-11T18:33:24.606Z,20.73
2023-02-11T18:38:26.808Z,20.93
2023-02-11T18:43:28.038Z,21.1
2023-02-11T18:48:29.463Z,21.25
2023-02-11T18:53:31.306Z,21.38
2023-02-11T18:58:33.136Z,21.49
2023-02-11T19:03:34.760Z,21.59
2023-02-11T19:08:36.076Z,21.67
2023-02-11T19:13:37.582Z,21.75
2023-02-11T19:18:39.089Z,21.81
2023-02-11T19:23:41.122Z,21.88
2023-02-11T19:28:43.073Z,21.93
2023-02-11T19:33:45.111Z,21.96
2023-02-11T19:38:46.913Z,21.99
2023-02-11T19:43:48.714Z,22.02
2023-02-11T19:48:50.724Z,22.05
2023-02-11T19:53:52.790Z,22.07
2023-02-11T19:58:53.987Z,22.09
2023-02-11T20:03:55.796Z,22.12
2023-02-11T20:08:58.539Z,22.15
2023-02-11T20:13:59.110Z,22.17
2023-02-11T20:19:00.658Z,22.19
2023-02-11T20:24:02.386Z,22.2
2023-02-11T20:29:04.330Z,22.22
2023-02-11T20:34:05.840Z,22.23
2023-02-11T20:39:07.432Z,22.24
2023-02-11T20:44:08.803Z,22.25
2023-02-11T20:49:10.817Z,22.27
2023-02-11T20:54:12.245Z,22.27
2023-02-11T20:59:14.282Z,22.29
2023-02-11T21:04:16.359Z,22.3
2023-02-11T21:09:17.734Z,22.32
2023-02-11T21:14:19.047Z,22.31
2023-02-11T21:19:20.788Z,22.32
2023-02-11T21:24:22.074Z,22.33
2023-02-11T21:29:24.084Z,22.34
2023-02-11T21:34:25.718Z,22.35
2023-02-11T21:39:27.168Z,22.35
2023-02-11T21:44:28.587Z,22.36
2023-02-11T21:49:30.132Z,22.36
2023-02-11T21:54:31.505Z,22.37
2023-02-11T21:59:32.842Z,22.37
2023-02-11T22:04:34.373Z,22.37
2023-02-11T22:09:36.411Z,22.37
2023-02-11T22:14:38.463Z,22.37
2023-02-11T22:19:39.826Z,22.37
2023-02-11T22:24:41.734Z,22.37
2023-02-11T22:29:43.359Z,22.37
2023-02-11T22:34:45.168Z,22.38
2023-02-11T22:39:47.425Z,22.38
2023-02-11T22:44:49.230Z,22.38
2023-02-11T22:49:51.109Z,22.38
2023-02-11T22:54:53.653Z,22.38
2023-02-11T22:59:55.011Z,22.38
2023-02-11T23:15:00.016Z,22.38
2023-02-11T23:20:01.152Z,22.38
2023-02-11T23:25:02.381Z,22.38
2023-02-11T23:30:04.214Z,22.38
2023-02-11T23:45:18.226Z,22.38
